sensor_id;sensor_type;location;lat;lon;timestamp;P1;durP1;ratioP1;P2;durP2;ratioP2
8421;SDS011;4248;48.196;10.924;2022-07-23T00:00:47;20.10;;;11.40;;
8421;SDS011;4248;48.196;10.924;2022-07-23T00:03:12;21.73;;;12.03;;
8421;SDS011;4248;48.196;10.924;2022-07-23T00:05:38;17.67;;;12.20;;
8421;SDS011;4248;48.196;10.924;2022-07-23T00:08:05;16.67;;;11.77;;
8421;SDS011;4248;48.196;10.924;2022-07-23T00:10:31;19.50;;;11.13;;
8421;SDS011;4248;48.196;10.924;2022-07-23T00:12:57;18.30;;;12.27;;
8421;SDS011;4248;48.196;10.924;2022-07-23T00:15:22;15.47;;;11.27;;
8421;SDS011;4248;48.196;10.924;2022-07-23T00:17:48;16.80;;;12.20;;
8421;SDS011;4248;48.196;10.924;2022-07-23T00:20:14;14.70;;;11.43;;
8421;SDS011;4248;48.196;10.924;2022-07-23T00:22:46;16.97;;;11.57;;
8421;SDS011;4248;48.196;10.924;2022-07-23T00:25:13;16.33;;;11.90;;
8421;SDS011;4248;48.196;10.924;2022-07-23T00:27:38;18.63;;;11.10;;
8421;SDS011;4248;48.196;10.924;2022-07-23T00:30:04;16.03;;;9.47;;
8421;SDS011;4248;48.196;10.924;2022-07-23T00:32:30;14.30;;;9.20;;
8421;SDS011;4248;48.196;10.924;2022-07-23T00:34:56;19.63;;;8.90;;
8421;SDS011;4248;48.196;10.924;2022-07-23T00:37:21;12.03;;;8.50;;
8421;SDS011;4248;48.196;10.924;2022-07-23T00:39:47;9.27;;;7.23;;
8421;SDS011;4248;48.196;10.924;2022-07-23T00:42:12;13.70;;;8.20;;
8421;SDS011;4248;48.196;10.924;2022-07-23T00:44:38;12.40;;;7.03;;
8421;SDS011;4248;48.196;10.924;2022-07-23T00:47:04;33.83;;;8.40;;
8421;SDS011;4248;48.196;10.924;2022-07-23T00:49:30;18.20;;;8.40;;
8421;SDS011;4248;48.196;10.924;2022-07-23T00:51:56;24.20;;;10.53;;
8421;SDS011;4248;48.196;10.924;2022-07-23T00:54:26;30.03;;;10.63;;
8421;SDS011;4248;48.196;10.924;2022-07-23T00:56:52;23.17;;;9.00;;
8421;SDS011;4248;48.196;10.924;2022-07-23T00:59:18;20.57;;;8.83;;
8421;SDS011;4248;48.196;10.924;2022-07-23T01:01:43;16.40;;;9.87;;
8421;SDS011;4248;48.196;10.924;2022-07-23T01:04:10;23.67;;;11.20;;
8421;SDS011;4248;48.196;10.924;2022-07-23T01:06:37;24.77;;;12.57;;
8421;SDS011;4248;48.196;10.924;2022-07-23T01:09:03;23.00;;;13.97;;
8421;SDS011;4248;48.196;10.924;2022-07-23T01:11:31;26.27;;;14.37;;
8421;SDS011;4248;48.196;10.924;2022-07-23T01:14:12;30.93;;;14.87;;
8421;SDS011;4248;48.196;10.924;2022-07-23T01:16:39;24.83;;;15.00;;
8421;SDS011;4248;48.196;10.924;2022-07-23T01:19:06;20.60;;;13.87;;
8421;SDS011;4248;48.196;10.924;2022-07-23T01:21:34;21.90;;;15.17;;
8421;SDS011;4248;48.196;10.924;2022-07-23T01:24:02;22.93;;;15.50;;
8421;SDS011;4248;48.196;10.924;2022-07-23T01:26:28;25.40;;;16.33;;
8421;SDS011;4248;48.196;10.924;2022-07-23T01:28:54;27.30;;;13.53;;
8421;SDS011;4248;48.196;10.924;2022-07-23T01:31:20;21.00;;;13.57;;
8421;SDS011;4248;48.196;10.924;2022-07-23T01:33:46;23.57;;;12.90;;
8421;SDS011;4248;48.196;10.924;2022-07-23T01:36:11;26.80;;;15.43;;
8421;SDS011;4248;48.196;10.924;2022-07-23T01:38:37;26.90;;;14.27;;
8421;SDS011;4248;48.196;10.924;2022-07-23T01:41:02;21.60;;;13.03;;
8421;SDS011;4248;48.196;10.924;2022-07-23T01:43:28;20.50;;;13.70;;
8421;SDS011;4248;48.196;10.924;2022-07-23T01:45:54;21.13;;;12.00;;
8421;SDS011;4248;48.196;10.924;2022-07-23T01:48:20;20.20;;;11.77;;
8421;SDS011;4248;48.196;10.924;2022-07-23T01:50:46;22.57;;;12.50;;
8421;SDS011;4248;48.196;10.924;2022-07-23T01:53:12;23.67;;;12.80;;
8421;SDS011;4248;48.196;10.924;2022-07-23T01:55:38;20.17;;;12.63;;
8421;SDS011;4248;48.196;10.924;2022-07-23T01:58:04;21.77;;;11.70;;
8421;SDS011;4248;48.196;10.924;2022-07-23T02:00:30;24.37;;;12.13;;
8421;SDS011;4248;48.196;10.924;2022-07-23T02:02:56;18.37;;;11.77;;
8421;SDS011;4248;48.196;10.924;2022-07-23T02:05:25;16.30;;;11.43;;
8421;SDS011;4248;48.196;10.924;2022-07-23T02:07:53;18.77;;;12.30;;
8421;SDS011;4248;48.196;10.924;2022-07-23T02:10:19;20.50;;;12.13;;
8421;SDS011;4248;48.196;10.924;2022-07-23T02:12:45;25.23;;;14.37;;
8421;SDS011;4248;48.196;10.924;2022-07-23T02:15:11;23.57;;;13.73;;
8421;SDS011;4248;48.196;10.924;2022-07-23T02:17:37;25.67;;;14.17;;
8421;SDS011;4248;48.196;10.924;2022-07-23T02:20:03;22.97;;;14.47;;
8421;SDS011;4248;48.196;10.924;2022-07-23T02:22:29;34.70;;;13.60;;
8421;SDS011;4248;48.196;10.924;2022-07-23T02:24:55;27.50;;;15.30;;
8421;SDS011;4248;48.196;10.924;2022-07-23T02:27:21;36.93;;;15.23;;
8421;SDS011;4248;48.196;10.924;2022-07-23T02:29:46;23.90;;;13.30;;
8421;SDS011;4248;48.196;10.924;2022-07-23T02:32:12;16.47;;;12.13;;
8421;SDS011;4248;48.196;10.924;2022-07-23T02:34:38;16.40;;;11.80;;
8421;SDS011;4248;48.196;10.924;2022-07-23T02:37:03;23.40;;;12.53;;
8421;SDS011;4248;48.196;10.924;2022-07-23T02:39:29;17.30;;;12.80;;
8421;SDS011;4248;48.196;10.924;2022-07-23T02:41:55;19.67;;;11.03;;
8421;SDS011;4248;48.196;10.924;2022-07-23T02:44:20;15.83;;;11.10;;
8421;SDS011;4248;48.196;10.924;2022-07-23T02:46:46;19.10;;;11.30;;
8421;SDS011;4248;48.196;10.924;2022-07-23T02:49:11;16.40;;;10.00;;
8421;SDS011;4248;48.196;10.924;2022-07-23T02:51:37;14.50;;;10.00;;
8421;SDS011;4248;48.196;10.924;2022-07-23T02:54:02;17.80;;;10.60;;
8421;SDS011;4248;48.196;10.924;2022-07-23T02:56:28;13.50;;;8.60;;
8421;SDS011;4248;48.196;10.924;2022-07-23T02:58:54;20.13;;;9.10;;
8421;SDS011;4248;48.196;10.924;2022-07-23T03:01:19;16.07;;;7.70;;
8421;SDS011;4248;48.196;10.924;2022-07-23T03:03:45;13.70;;;7.57;;
8421;SDS011;4248;48.196;10.924;2022-07-23T03:06:10;15.87;;;8.57;;
8421;SDS011;4248;48.196;10.924;2022-07-23T03:08:37;10.90;;;8.20;;
8421;SDS011;4248;48.196;10.924;2022-07-23T03:11:02;11.57;;;8.50;;
8421;SDS011;4248;48.196;10.924;2022-07-23T03:13:28;12.47;;;8.87;;
8421;SDS011;4248;48.196;10.924;2022-07-23T03:15:54;11.83;;;7.13;;
8421;SDS011;4248;48.196;10.924;2022-07-23T03:18:20;13.70;;;7.47;;
8421;SDS011;4248;48.196;10.924;2022-07-23T03:20:45;12.90;;;7.27;;
8421;SDS011;4248;48.196;10.924;2022-07-23T03:23:11;13.20;;;7.37;;
8421;SDS011;4248;48.196;10.924;2022-07-23T03:25:37;14.03;;;7.40;;
8421;SDS011;4248;48.196;10.924;2022-07-23T03:28:02;10.10;;;6.80;;
8421;SDS011;4248;48.196;10.924;2022-07-23T03:30:28;9.00;;;7.03;;
8421;SDS011;4248;48.196;10.924;2022-07-23T03:32:54;11.60;;;7.43;;
8421;SDS011;4248;48.196;10.924;2022-07-23T03:35:19;9.87;;;7.13;;
8421;SDS011;4248;48.196;10.924;2022-07-23T03:37:45;7.70;;;5.67;;
8421;SDS011;4248;48.196;10.924;2022-07-23T03:40:11;11.57;;;7.00;;
8421;SDS011;4248;48.196;10.924;2022-07-23T03:42:36;13.73;;;6.90;;
8421;SDS011;4248;48.196;10.924;2022-07-23T03:45:03;11.23;;;6.27;;
8421;SDS011;4248;48.196;10.924;2022-07-23T03:47:29;17.27;;;7.93;;
8421;SDS011;4248;48.196;10.924;2022-07-23T03:49:55;13.37;;;7.20;;
8421;SDS011;4248;48.196;10.924;2022-07-23T03:52:20;11.30;;;6.50;;
8421;SDS011;4248;48.196;10.924;2022-07-23T03:54:46;9.67;;;6.70;;
8421;SDS011;4248;48.196;10.924;2022-07-23T03:57:11;12.43;;;6.80;;
8421;SDS011;4248;48.196;10.924;2022-07-23T03:59:37;9.67;;;7.50;;
8421;SDS011;4248;48.196;10.924;2022-07-23T04:02:02;15.80;;;7.53;;
8421;SDS011;4248;48.196;10.924;2022-07-23T04:04:28;14.90;;;7.03;;
8421;SDS011;4248;48.196;10.924;2022-07-23T04:06:54;9.80;;;6.87;;
8421;SDS011;4248;48.196;10.924;2022-07-23T04:09:19;15.87;;;7.30;;
8421;SDS011;4248;48.196;10.924;2022-07-23T04:11:45;14.10;;;7.70;;
8421;SDS011;4248;48.196;10.924;2022-07-23T04:14:10;12.40;;;7.00;;
8421;SDS011;4248;48.196;10.924;2022-07-23T04:16:36;15.53;;;7.47;;
8421;SDS011;4248;48.196;10.924;2022-07-23T04:19:01;10.23;;;6.93;;
8421;SDS011;4248;48.196;10.924;2022-07-23T04:21:29;10.20;;;7.40;;
8421;SDS011;4248;48.196;10.924;2022-07-23T04:23:55;9.73;;;7.30;;
8421;SDS011;4248;48.196;10.924;2022-07-23T04:26:20;13.40;;;7.70;;
8421;SDS011;4248;48.196;10.924;2022-07-23T04:28:46;18.93;;;8.13;;
8421;SDS011;4248;48.196;10.924;2022-07-23T04:31:12;9.70;;;7.10;;
8421;SDS011;4248;48.196;10.924;2022-07-23T04:33:38;11.20;;;8.53;;
8421;SDS011;4248;48.196;10.924;2022-07-23T04:36:03;12.30;;;7.60;;
8421;SDS011;4248;48.196;10.924;2022-07-23T04:38:29;18.73;;;8.00;;
8421;SDS011;4248;48.196;10.924;2022-07-23T04:40:54;15.77;;;8.23;;
8421;SDS011;4248;48.196;10.924;2022-07-23T04:43:20;9.17;;;7.43;;
8421;SDS011;4248;48.196;10.924;2022-07-23T04:45:45;15.00;;;7.90;;
8421;SDS011;4248;48.196;10.924;2022-07-23T04:48:11;12.30;;;8.50;;
8421;SDS011;4248;48.196;10.924;2022-07-23T04:50:37;11.53;;;8.40;;
8421;SDS011;4248;48.196;10.924;2022-07-23T04:53:02;13.20;;;7.57;;
8421;SDS011;4248;48.196;10.924;2022-07-23T04:55:28;14.00;;;7.80;;
8421;SDS011;4248;48.196;10.924;2022-07-23T04:57:54;10.07;;;7.80;;
8421;SDS011;4248;48.196;10.924;2022-07-23T05:00:19;12.37;;;6.90;;
8421;SDS011;4248;48.196;10.924;2022-07-23T05:02:45;10.53;;;7.80;;
8421;SDS011;4248;48.196;10.924;2022-07-23T05:05:10;19.70;;;8.80;;
8421;SDS011;4248;48.196;10.924;2022-07-23T05:07:36;10.60;;;8.27;;
8421;SDS011;4248;48.196;10.924;2022-07-23T05:10:02;16.80;;;7.47;;
8421;SDS011;4248;48.196;10.924;2022-07-23T05:12:27;14.43;;;7.63;;
8421;SDS011;4248;48.196;10.924;2022-07-23T05:14:53;14.77;;;7.50;;
8421;SDS011;4248;48.196;10.924;2022-07-23T05:17:19;10.73;;;7.17;;
8421;SDS011;4248;48.196;10.924;2022-07-23T05:19:45;13.60;;;7.97;;
8421;SDS011;4248;48.196;10.924;2022-07-23T05:22:10;14.03;;;6.77;;
8421;SDS011;4248;48.196;10.924;2022-07-23T05:24:36;12.03;;;6.17;;
8421;SDS011;4248;48.196;10.924;2022-07-23T05:27:01;13.40;;;7.60;;
8421;SDS011;4248;48.196;10.924;2022-07-23T05:29:27;10.50;;;6.30;;
8421;SDS011;4248;48.196;10.924;2022-07-23T05:31:52;16.53;;;6.57;;
8421;SDS011;4248;48.196;10.924;2022-07-23T05:34:18;19.23;;;7.03;;
8421;SDS011;4248;48.196;10.924;2022-07-23T05:36:44;12.23;;;7.07;;
8421;SDS011;4248;48.196;10.924;2022-07-23T05:39:09;14.47;;;6.20;;
8421;SDS011;4248;48.196;10.924;2022-07-23T05:41:35;15.97;;;7.00;;
8421;SDS011;4248;48.196;10.924;2022-07-23T05:44:00;10.60;;;6.60;;
8421;SDS011;4248;48.196;10.924;2022-07-23T05:46:26;10.87;;;6.97;;
8421;SDS011;4248;48.196;10.924;2022-07-23T05:48:51;12.83;;;6.70;;
8421;SDS011;4248;48.196;10.924;2022-07-23T05:51:20;11.40;;;7.27;;
8421;SDS011;4248;48.196;10.924;2022-07-23T05:53:46;14.33;;;6.77;;
8421;SDS011;4248;48.196;10.924;2022-07-23T05:56:12;12.77;;;7.77;;
8421;SDS011;4248;48.196;10.924;2022-07-23T05:58:38;10.47;;;6.83;;
8421;SDS011;4248;48.196;10.924;2022-07-23T06:01:04;16.50;;;7.57;;
8421;SDS011;4248;48.196;10.924;2022-07-23T06:03:30;10.03;;;7.03;;
8421;SDS011;4248;48.196;10.924;2022-07-23T06:05:55;12.43;;;7.40;;
8421;SDS011;4248;48.196;10.924;2022-07-23T06:08:21;17.67;;;8.20;;
8421;SDS011;4248;48.196;10.924;2022-07-23T06:10:46;13.83;;;8.87;;
8421;SDS011;4248;48.196;10.924;2022-07-23T06:13:12;11.40;;;8.10;;
8421;SDS011;4248;48.196;10.924;2022-07-23T06:15:37;11.10;;;8.20;;
8421;SDS011;4248;48.196;10.924;2022-07-23T06:18:03;10.37;;;8.00;;
8421;SDS011;4248;48.196;10.924;2022-07-23T06:20:29;15.00;;;7.67;;
8421;SDS011;4248;48.196;10.924;2022-07-23T06:22:54;17.50;;;8.23;;
8421;SDS011;4248;48.196;10.924;2022-07-23T06:25:20;12.07;;;7.70;;
8421;SDS011;4248;48.196;10.924;2022-07-23T06:27:46;10.47;;;7.10;;
8421;SDS011;4248;48.196;10.924;2022-07-23T06:30:12;12.47;;;7.33;;
8421;SDS011;4248;48.196;10.924;2022-07-23T06:32:40;14.03;;;7.17;;
8421;SDS011;4248;48.196;10.924;2022-07-23T06:35:06;15.13;;;7.50;;
8421;SDS011;4248;48.196;10.924;2022-07-23T06:37:32;16.83;;;9.17;;
8421;SDS011;4248;48.196;10.924;2022-07-23T06:39:58;13.10;;;8.20;;
8421;SDS011;4248;48.196;10.924;2022-07-23T06:42:23;12.27;;;7.90;;
8421;SDS011;4248;48.196;10.924;2022-07-23T06:44:49;11.90;;;8.53;;
8421;SDS011;4248;48.196;10.924;2022-07-23T06:47:14;10.43;;;8.00;;
8421;SDS011;4248;48.196;10.924;2022-07-23T06:49:40;11.87;;;8.50;;
8421;SDS011;4248;48.196;10.924;2022-07-23T06:52:06;12.43;;;8.60;;
8421;SDS011;4248;48.196;10.924;2022-07-23T06:54:32;13.07;;;7.63;;
8421;SDS011;4248;48.196;10.924;2022-07-23T06:56:58;13.03;;;8.00;;
8421;SDS011;4248;48.196;10.924;2022-07-23T06:59:23;13.07;;;8.77;;
8421;SDS011;4248;48.196;10.924;2022-07-23T07:01:49;12.73;;;8.47;;
8421;SDS011;4248;48.196;10.924;2022-07-23T07:04:15;11.03;;;7.93;;
8421;SDS011;4248;48.196;10.924;2022-07-23T07:06:40;12.97;;;8.63;;
8421;SDS011;4248;48.196;10.924;2022-07-23T07:09:06;14.60;;;8.97;;
8421;SDS011;4248;48.196;10.924;2022-07-23T07:11:31;14.40;;;9.20;;
8421;SDS011;4248;48.196;10.924;2022-07-23T07:13:57;13.10;;;8.87;;
8421;SDS011;4248;48.196;10.924;2022-07-23T07:16:22;13.13;;;9.33;;
8421;SDS011;4248;48.196;10.924;2022-07-23T07:18:48;13.13;;;8.90;;
8421;SDS011;4248;48.196;10.924;2022-07-23T07:21:14;11.93;;;8.80;;
8421;SDS011;4248;48.196;10.924;2022-07-23T07:23:40;15.20;;;10.37;;
8421;SDS011;4248;48.196;10.924;2022-07-23T07:26:05;17.67;;;10.43;;
8421;SDS011;4248;48.196;10.924;2022-07-23T07:28:31;12.53;;;10.20;;
8421;SDS011;4248;48.196;10.924;2022-07-23T07:30:56;15.37;;;9.10;;
8421;SDS011;4248;48.196;10.924;2022-07-23T07:33:22;12.00;;;9.10;;
8421;SDS011;4248;48.196;10.924;2022-07-23T07:35:47;12.47;;;9.93;;
8421;SDS011;4248;48.196;10.924;2022-07-23T07:38:13;14.63;;;10.17;;
8421;SDS011;4248;48.196;10.924;2022-07-23T07:40:40;12.20;;;7.40;;
8421;SDS011;4248;48.196;10.924;2022-07-23T07:43:05;14.27;;;8.47;;
8421;SDS011;4248;48.196;10.924;2022-07-23T07:45:31;14.07;;;7.60;;
8421;SDS011;4248;48.196;10.924;2022-07-23T07:47:57;12.63;;;8.50;;
8421;SDS011;4248;48.196;10.924;2022-07-23T07:50:22;11.43;;;7.40;;
8421;SDS011;4248;48.196;10.924;2022-07-23T07:52:48;9.90;;;7.80;;
8421;SDS011;4248;48.196;10.924;2022-07-23T07:55:14;10.90;;;7.23;;
8421;SDS011;4248;48.196;10.924;2022-07-23T07:57:40;11.13;;;8.37;;
8421;SDS011;4248;48.196;10.924;2022-07-23T08:00:07;10.77;;;7.80;;
8421;SDS011;4248;48.196;10.924;2022-07-23T08:05:08;11.10;;;7.67;;
8421;SDS011;4248;48.196;10.924;2022-07-23T08:07:34;15.03;;;8.27;;
8421;SDS011;4248;48.196;10.924;2022-07-23T08:10:00;11.30;;;7.50;;
8421;SDS011;4248;48.196;10.924;2022-07-23T08:12:26;18.87;;;7.90;;
8421;SDS011;4248;48.196;10.924;2022-07-23T08:14:51;10.90;;;6.90;;
8421;SDS011;4248;48.196;10.924;2022-07-23T08:17:17;11.60;;;7.70;;
8421;SDS011;4248;48.196;10.924;2022-07-23T08:19:43;12.57;;;7.33;;
8421;SDS011;4248;48.196;10.924;2022-07-23T08:22:08;13.33;;;7.23;;
8421;SDS011;4248;48.196;10.924;2022-07-23T08:24:34;11.63;;;8.47;;
8421;SDS011;4248;48.196;10.924;2022-07-23T08:26:59;12.20;;;7.93;;
8421;SDS011;4248;48.196;10.924;2022-07-23T08:29:25;17.33;;;8.23;;
8421;SDS011;4248;48.196;10.924;2022-07-23T08:31:51;12.30;;;8.57;;
8421;SDS011;4248;48.196;10.924;2022-07-23T08:34:16;11.47;;;7.87;;
8421;SDS011;4248;48.196;10.924;2022-07-23T08:36:42;10.60;;;8.30;;
8421;SDS011;4248;48.196;10.924;2022-07-23T08:39:07;11.60;;;8.40;;
8421;SDS011;4248;48.196;10.924;2022-07-23T08:41:33;16.73;;;8.40;;
8421;SDS011;4248;48.196;10.924;2022-07-23T08:43:59;13.13;;;8.27;;
8421;SDS011;4248;48.196;10.924;2022-07-23T08:46:26;10.87;;;8.67;;
8421;SDS011;4248;48.196;10.924;2022-07-23T08:48:52;11.50;;;8.63;;
8421;SDS011;4248;48.196;10.924;2022-07-23T08:51:20;10.20;;;8.50;;
8421;SDS011;4248;48.196;10.924;2022-07-23T08:53:46;11.40;;;8.80;;
8421;SDS011;4248;48.196;10.924;2022-07-23T08:56:12;11.20;;;8.33;;
8421;SDS011;4248;48.196;10.924;2022-07-23T08:58:38;13.43;;;8.60;;
8421;SDS011;4248;48.196;10.924;2022-07-23T09:01:04;10.50;;;8.33;;
8421;SDS011;4248;48.196;10.924;2022-07-23T09:03:30;11.37;;;8.87;;
8421;SDS011;4248;48.196;10.924;2022-07-23T09:05:58;13.37;;;8.73;;
8421;SDS011;4248;48.196;10.924;2022-07-23T09:11:11;12.83;;;8.53;;
8421;SDS011;4248;48.196;10.924;2022-07-23T09:16:23;9.50;;;6.27;;
8421;SDS011;4248;48.196;10.924;2022-07-23T09:18:59;10.10;;;6.60;;
8421;SDS011;4248;48.196;10.924;2022-07-23T09:21:32;11.20;;;6.47;;
8421;SDS011;4248;48.196;10.924;2022-07-23T09:24:06;7.97;;;5.70;;
8421;SDS011;4248;48.196;10.924;2022-07-23T09:29:09;8.60;;;5.57;;
8421;SDS011;4248;48.196;10.924;2022-07-23T09:31:45;9.90;;;6.20;;
8421;SDS011;4248;48.196;10.924;2022-07-23T09:34:22;9.10;;;6.00;;
8421;SDS011;4248;48.196;10.924;2022-07-23T09:36:49;10.57;;;6.73;;
8421;SDS011;4248;48.196;10.924;2022-07-23T09:39:37;7.60;;;5.77;;
8421;SDS011;4248;48.196;10.924;2022-07-23T09:42:13;9.70;;;6.13;;
8421;SDS011;4248;48.196;10.924;2022-07-23T09:44:46;9.07;;;6.47;;
8421;SDS011;4248;48.196;10.924;2022-07-23T09:47:16;10.70;;;6.40;;
8421;SDS011;4248;48.196;10.924;2022-07-23T09:49:58;10.53;;;6.10;;
8421;SDS011;4248;48.196;10.924;2022-07-23T09:52:29;15.37;;;6.47;;
8421;SDS011;4248;48.196;10.924;2022-07-23T09:54:57;12.27;;;6.10;;
8421;SDS011;4248;48.196;10.924;2022-07-23T09:57:24;8.30;;;5.70;;
8421;SDS011;4248;48.196;10.924;2022-07-23T09:59:51;10.00;;;5.97;;
8421;SDS011;4248;48.196;10.924;2022-07-23T10:02:18;10.93;;;6.00;;
8421;SDS011;4248;48.196;10.924;2022-07-23T10:04:45;9.77;;;6.17;;
8421;SDS011;4248;48.196;10.924;2022-07-23T10:07:12;9.50;;;5.40;;
8421;SDS011;4248;48.196;10.924;2022-07-23T10:09:41;9.60;;;5.60;;
8421;SDS011;4248;48.196;10.924;2022-07-23T10:12:12;8.17;;;5.30;;
8421;SDS011;4248;48.196;10.924;2022-07-23T10:14:39;9.80;;;5.70;;
8421;SDS011;4248;48.196;10.924;2022-07-23T10:17:05;8.73;;;5.33;;
8421;SDS011;4248;48.196;10.924;2022-07-23T10:19:32;7.93;;;5.27;;
8421;SDS011;4248;48.196;10.924;2022-07-23T10:22:42;8.57;;;6.40;;
8421;SDS011;4248;48.196;10.924;2022-07-23T10:25:24;8.30;;;5.87;;
8421;SDS011;4248;48.196;10.924;2022-07-23T10:28:04;8.40;;;5.20;;
8421;SDS011;4248;48.196;10.924;2022-07-23T10:36:19;9.60;;;6.27;;
8421;SDS011;4248;48.196;10.924;2022-07-23T10:38:54;10.40;;;5.90;;
8421;SDS011;4248;48.196;10.924;2022-07-23T10:41:31;8.07;;;5.57;;
8421;SDS011;4248;48.196;10.924;2022-07-23T10:44:09;9.20;;;6.70;;
8421;SDS011;4248;48.196;10.924;2022-07-23T10:46:56;9.70;;;5.67;;
8421;SDS011;4248;48.196;10.924;2022-07-23T10:49:29;9.73;;;6.30;;
8421;SDS011;4248;48.196;10.924;2022-07-23T10:54:48;10.00;;;7.13;;
8421;SDS011;4248;48.196;10.924;2022-07-23T10:57:26;8.20;;;6.60;;
8421;SDS011;4248;48.196;10.924;2022-07-23T11:02:34;10.03;;;6.40;;
8421;SDS011;4248;48.196;10.924;2022-07-23T11:05:08;13.10;;;7.00;;
8421;SDS011;4248;48.196;10.924;2022-07-23T11:07:36;12.37;;;7.30;;
8421;SDS011;4248;48.196;10.924;2022-07-23T11:18:52;9.60;;;6.60;;
8421;SDS011;4248;48.196;10.924;2022-07-23T11:31:53;7.10;;;6.10;;
8421;SDS011;4248;48.196;10.924;2022-07-23T11:37:04;8.17;;;5.83;;
8421;SDS011;4248;48.196;10.924;2022-07-23T11:39:32;9.10;;;6.60;;
8421;SDS011;4248;48.196;10.924;2022-07-23T11:41:58;11.17;;;6.20;;
8421;SDS011;4248;48.196;10.924;2022-07-23T11:44:26;11.30;;;7.33;;
8421;SDS011;4248;48.196;10.924;2022-07-23T11:46:56;9.40;;;6.87;;
8421;SDS011;4248;48.196;10.924;2022-07-23T11:49:25;10.47;;;7.10;;
8421;SDS011;4248;48.196;10.924;2022-07-23T11:54:49;10.50;;;7.57;;
8421;SDS011;4248;48.196;10.924;2022-07-23T11:57:15;10.23;;;7.27;;
8421;SDS011;4248;48.196;10.924;2022-07-23T11:59:41;10.07;;;7.03;;
8421;SDS011;4248;48.196;10.924;2022-07-23T12:02:08;9.17;;;7.57;;
8421;SDS011;4248;48.196;10.924;2022-07-23T12:04:40;12.70;;;8.27;;
8421;SDS011;4248;48.196;10.924;2022-07-23T12:09:51;10.43;;;7.73;;
8421;SDS011;4248;48.196;10.924;2022-07-23T12:12:17;11.20;;;7.17;;
8421;SDS011;4248;48.196;10.924;2022-07-23T12:14:49;10.20;;;7.47;;
8421;SDS011;4248;48.196;10.924;2022-07-23T12:17:16;9.53;;;6.83;;
8421;SDS011;4248;48.196;10.924;2022-07-23T12:19:42;8.80;;;6.27;;
8421;SDS011;4248;48.196;10.924;2022-07-23T12:22:08;11.93;;;7.40;;
8421;SDS011;4248;48.196;10.924;2022-07-23T12:27:20;11.60;;;7.40;;
8421;SDS011;4248;48.196;10.924;2022-07-23T12:29:46;10.70;;;7.50;;
8421;SDS011;4248;48.196;10.924;2022-07-23T12:35:07;10.53;;;7.53;;
8421;SDS011;4248;48.196;10.924;2022-07-23T12:37:36;13.87;;;8.37;;
8421;SDS011;4248;48.196;10.924;2022-07-23T12:42:57;9.40;;;6.97;;
8421;SDS011;4248;48.196;10.924;2022-07-23T12:45:24;8.53;;;6.83;;
8421;SDS011;4248;48.196;10.924;2022-07-23T12:47:52;9.33;;;7.47;;
8421;SDS011;4248;48.196;10.924;2022-07-23T12:50:57;7.97;;;6.60;;
8421;SDS011;4248;48.196;10.924;2022-07-23T12:53:19;8.77;;;7.20;;
8421;SDS011;4248;48.196;10.924;2022-07-23T12:55:47;8.13;;;6.23;;
8421;SDS011;4248;48.196;10.924;2022-07-23T12:58:17;9.13;;;6.77;;
8421;SDS011;4248;48.196;10.924;2022-07-23T13:03:24;9.43;;;6.37;;
8421;SDS011;4248;48.196;10.924;2022-07-23T13:05:54;13.20;;;7.07;;
8421;SDS011;4248;48.196;10.924;2022-07-23T13:08:20;8.33;;;6.70;;
8421;SDS011;4248;48.196;10.924;2022-07-23T13:10:47;8.23;;;7.37;;
8421;SDS011;4248;48.196;10.924;2022-07-23T13:13:15;11.00;;;7.00;;
8421;SDS011;4248;48.196;10.924;2022-07-23T13:15:42;12.43;;;8.00;;
8421;SDS011;4248;48.196;10.924;2022-07-23T13:18:08;10.60;;;7.33;;
8421;SDS011;4248;48.196;10.924;2022-07-23T13:20:34;7.67;;;6.43;;
8421;SDS011;4248;48.196;10.924;2022-07-23T13:23:01;10.57;;;6.97;;
8421;SDS011;4248;48.196;10.924;2022-07-23T13:25:27;12.57;;;7.80;;
8421;SDS011;4248;48.196;10.924;2022-07-23T13:27:52;13.20;;;7.50;;
8421;SDS011;4248;48.196;10.924;2022-07-23T13:30:18;8.40;;;7.40;;
8421;SDS011;4248;48.196;10.924;2022-07-23T13:32:44;17.87;;;7.07;;
8421;SDS011;4248;48.196;10.924;2022-07-23T13:35:09;9.30;;;6.97;;
8421;SDS011;4248;48.196;10.924;2022-07-23T13:37:36;9.95;;;7.15;;
8421;SDS011;4248;48.196;10.924;2022-07-23T13:40:02;10.30;;;7.70;;
8421;SDS011;4248;48.196;10.924;2022-07-23T13:42:28;9.67;;;6.57;;
8421;SDS011;4248;48.196;10.924;2022-07-23T13:44:54;9.43;;;7.13;;
8421;SDS011;4248;48.196;10.924;2022-07-23T13:47:19;10.20;;;7.53;;
8421;SDS011;4248;48.196;10.924;2022-07-23T13:49:45;9.17;;;6.87;;
8421;SDS011;4248;48.196;10.924;2022-07-23T13:52:11;11.67;;;7.30;;
8421;SDS011;4248;48.196;10.924;2022-07-23T13:54:36;8.90;;;7.20;;
8421;SDS011;4248;48.196;10.924;2022-07-23T13:57:02;11.40;;;7.10;;
8421;SDS011;4248;48.196;10.924;2022-07-23T13:59:28;9.47;;;6.80;;
8421;SDS011;4248;48.196;10.924;2022-07-23T14:01:54;10.20;;;8.53;;
8421;SDS011;4248;48.196;10.924;2022-07-23T14:04:20;11.03;;;7.20;;
8421;SDS011;4248;48.196;10.924;2022-07-23T14:06:46;8.17;;;6.80;;
8421;SDS011;4248;48.196;10.924;2022-07-23T14:09:12;11.63;;;7.97;;
8421;SDS011;4248;48.196;10.924;2022-07-23T14:11:37;9.10;;;7.40;;
8421;SDS011;4248;48.196;10.924;2022-07-23T14:14:03;16.10;;;8.60;;
8421;SDS011;4248;48.196;10.924;2022-07-23T14:16:29;12.93;;;8.20;;
8421;SDS011;4248;48.196;10.924;2022-07-23T14:18:55;14.10;;;7.67;;
8421;SDS011;4248;48.196;10.924;2022-07-23T14:21:21;12.83;;;8.50;;
8421;SDS011;4248;48.196;10.924;2022-07-23T14:23:46;10.10;;;8.90;;
8421;SDS011;4248;48.196;10.924;2022-07-23T14:26:12;12.53;;;8.10;;
8421;SDS011;4248;48.196;10.924;2022-07-23T14:28:38;10.30;;;8.10;;
8421;SDS011;4248;48.196;10.924;2022-07-23T14:31:03;11.10;;;8.63;;
8421;SDS011;4248;48.196;10.924;2022-07-23T14:33:29;12.30;;;8.70;;
8421;SDS011;4248;48.196;10.924;2022-07-23T14:35:55;9.87;;;8.03;;
8421;SDS011;4248;48.196;10.924;2022-07-23T14:38:20;10.90;;;8.10;;
8421;SDS011;4248;48.196;10.924;2022-07-23T14:40:46;10.33;;;8.93;;
8421;SDS011;4248;48.196;10.924;2022-07-23T14:43:12;15.60;;;8.43;;
8421;SDS011;4248;48.196;10.924;2022-07-23T14:45:37;12.87;;;8.30;;
8421;SDS011;4248;48.196;10.924;2022-07-23T14:48:03;10.97;;;8.20;;
8421;SDS011;4248;48.196;10.924;2022-07-23T14:50:29;13.60;;;9.23;;
8421;SDS011;4248;48.196;10.924;2022-07-23T14:52:54;10.73;;;8.50;;
8421;SDS011;4248;48.196;10.924;2022-07-23T14:55:20;14.20;;;7.90;;
8421;SDS011;4248;48.196;10.924;2022-07-23T14:57:45;14.87;;;9.33;;
8421;SDS011;4248;48.196;10.924;2022-07-23T15:00:12;21.10;;;7.90;;
8421;SDS011;4248;48.196;10.924;2022-07-23T15:02:38;9.83;;;7.97;;
8421;SDS011;4248;48.196;10.924;2022-07-23T15:05:03;11.10;;;8.90;;
8421;SDS011;4248;48.196;10.924;2022-07-23T15:07:29;12.20;;;9.57;;
8421;SDS011;4248;48.196;10.924;2022-07-23T15:09:55;11.13;;;9.20;;
8421;SDS011;4248;48.196;10.924;2022-07-23T15:12:22;11.57;;;8.63;;
8421;SDS011;4248;48.196;10.924;2022-07-23T15:14:48;10.60;;;8.90;;
8421;SDS011;4248;48.196;10.924;2022-07-23T15:17:13;10.10;;;7.73;;
8421;SDS011;4248;48.196;10.924;2022-07-23T15:19:39;10.83;;;7.80;;
8421;SDS011;4248;48.196;10.924;2022-07-23T15:22:05;12.53;;;9.00;;
8421;SDS011;4248;48.196;10.924;2022-07-23T15:24:30;13.03;;;9.90;;
8421;SDS011;4248;48.196;10.924;2022-07-23T15:26:56;15.27;;;9.50;;
8421;SDS011;4248;48.196;10.924;2022-07-23T15:29:22;10.93;;;8.97;;
8421;SDS011;4248;48.196;10.924;2022-07-23T15:31:48;12.13;;;9.40;;
8421;SDS011;4248;48.196;10.924;2022-07-23T15:34:13;12.60;;;9.80;;
8421;SDS011;4248;48.196;10.924;2022-07-23T15:36:39;13.50;;;9.20;;
8421;SDS011;4248;48.196;10.924;2022-07-23T15:39:05;13.77;;;9.03;;
8421;SDS011;4248;48.196;10.924;2022-07-23T15:41:31;15.23;;;9.93;;
8421;SDS011;4248;48.196;10.924;2022-07-23T15:43:57;11.60;;;8.97;;
8421;SDS011;4248;48.196;10.924;2022-07-23T15:46:23;13.27;;;9.57;;